createdAt,value
2023-02-12T00:00:31.492Z,1034.24
2023-02-12T00:01:31.762Z,1034.22
2023-02-12T00:02:31.560Z,1034.21
2023-02-12T00:03:31.703Z,1034.20
2023-02-12T00:04:31.596Z,1034.21
2023-02-12T00:05:31.639Z,1034.20
2023-02-12T00:07:31.991Z,1034.17
2023-02-12T00:08:31.705Z,1034.21
2023-02-12T00:09:31.723Z,1034.22
2023-02-12T00:10:31.753Z,1034.20
2023-02-12T00:11:31.792Z,1034.22
2023-02-12T00:12:31.810Z,1034.24
2023-02-12T00:13:32.157Z,1034.22
2023-02-12T00:14:31.869Z,1034.22
2023-02-12T00:15:31.958Z,1034.17
2023-02-12T00:16:31.926Z,1034.18
2023-02-12T00:17:31.952Z,1034.17
2023-02-12T00:18:31.976Z,1034.16
2023-02-12T00:19:31.997Z,1034.18
2023-02-12T00:20:32.329Z,1034.14
2023-02-12T00:21:32.085Z,1034.15
2023-02-12T00:23:32.115Z,1034.17
2023-02-12T00:26:32.202Z,1034.16
2023-02-12T00:27:32.541Z,1034.17
2023-02-12T00:28:32.382Z,1034.16
2023-02-12T00:29:32.295Z,1034.19
2023-02-12T00:30:32.350Z,1034.20
2023-02-12T00:31:32.411Z,1034.22
2023-02-12T00:32:32.397Z,1034.23
2023-02-12T00:33:32.404Z,1034.23
2023-02-12T00:34:32.424Z,1034.23
2023-02-12T00:35:32.456Z,1034.21
2023-02-12T00:36:32.480Z,1034.22
2023-02-12T00:38:32.562Z,1034.19
2023-02-12T00:39:32.558Z,1034.22
2023-02-12T00:40:32.897Z,1034.20
2023-02-12T00:41:32.616Z,1034.23
2023-02-12T00:42:32.642Z,1034.18
2023-02-12T00:43:32.668Z,1034.20
2023-02-12T00:44:32.702Z,1034.23
2023-02-12T00:45:32.730Z,1034.21
2023-02-12T00:47:32.788Z,1034.21
2023-02-12T00:48:33.120Z,1034.20
2023-02-12T00:49:32.902Z,1034.16
2023-02-12T00:50:32.956Z,1034.16
2023-02-12T00:51:32.952Z,1034.15
2023-02-12T00:52:33.019Z,1034.13
2023-02-12T00:53:33.812Z,1034.11
2023-02-12T00:54:33.263Z,1034.13
2023-02-12T00:55:34.163Z,1034.13
2023-02-12T00:56:34.193Z,1034.14
2023-02-12T00:58:33.099Z,1034.12
2023-02-12T01:00:33.160Z,1034.07
2023-02-12T01:02:33.505Z,1034.04
2023-02-12T01:03:33.234Z,1034.05
2023-02-12T01:04:33.303Z,1034.08
2023-02-12T01:05:33.292Z,1034.06
2023-02-12T01:07:33.340Z,1034.12
2023-02-12T01:08:33.380Z,1034.11
2023-02-12T01:09:33.704Z,1034.10
2023-02-12T01:10:33.467Z,1034.13
2023-02-12T01:11:33.455Z,1034.16
2023-02-12T01:12:33.491Z,1034.14
2023-02-12T01:13:33.516Z,1034.13
2023-02-12T01:15:33.590Z,1034.08
2023-02-12T01:16:34.019Z,1034.09
2023-02-12T01:18:33.655Z,1034.09
2023-02-12T01:19:33.699Z,1034.05
2023-02-12T01:21:33.734Z,1034.09
2023-02-12T01:22:33.769Z,1034.09
2023-02-12T01:23:34.097Z,1034.12
2023-02-12T01:25:33.854Z,1034.07
2023-02-12T01:27:33.926Z,1034.06
2023-02-12T01:28:33.972Z,1034.01
2023-02-12T01:29:34.265Z,1034.02
2023-02-12T01:30:33.997Z,1034.01
2023-02-12T01:31:34.242Z,1033.99
2023-02-12T01:32:34.048Z,1034.02
2023-02-12T01:33:34.078Z,1034.02
2023-02-12T01:35:34.132Z,1033.99
2023-02-12T01:36:34.412Z,1034.04
2023-02-12T01:38:34.217Z,1034.06
2023-02-12T01:39:34.246Z,1034.08
2023-02-12T01:40:34.274Z,1034.06
2023-02-12T01:41:34.308Z,1034.09
2023-02-12T01:42:34.629Z,1034.11
2023-02-12T01:43:34.385Z,1034.08
2023-02-12T01:44:34.386Z,1034.10
2023-02-12T01:45:34.421Z,1034.08
2023-02-12T01:46:34.457Z,1034.10
2023-02-12T01:47:34.466Z,1034.08
2023-02-12T01:48:34.806Z,1034.10
2023-02-12T01:49:34.524Z,1034.08
2023-02-12T01:50:34.681Z,1034.08
2023-02-12T01:51:34.599Z,1034.06
2023-02-12T01:52:34.603Z,1034.07
2023-02-12T01:53:34.640Z,1034.08
2023-02-12T01:54:34.702Z,1034.07
2023-02-12T01:55:34.694Z,1034.07
2023-02-12T01:56:34.743Z,1034.08
2023-02-12T01:57:34.754Z,1034.05
2023-02-12T01:58:34.832Z,1034.07
2023-02-12T01:59:34.841Z,1034.05
2023-02-12T02:00:34.849Z,1034.05
2023-02-12T02:01:35.196Z,1034.00
2023-02-12T02:02:34.946Z,1034.02
2023-02-12T02:03:35.054Z,1034.02
2023-02-12T02:04:35.011Z,1034.00
2023-02-12T02:05:35.010Z,1033.98
2023-02-12T02:06:35.019Z,1034.00
2023-02-12T02:07:35.043Z,1034.02
2023-02-12T02:08:35.365Z,1033.97
2023-02-12T02:09:35.091Z,1033.99
2023-02-12T02:10:35.113Z,1033.97
2023-02-12T02:11:35.142Z,1033.99
2023-02-12T02:12:35.166Z,1034.00
2023-02-12T02:13:35.228Z,1034.02
2023-02-12T02:14:35.226Z,1034.01
2023-02-12T02:15:35.569Z,1034.02
2023-02-12T02:16:35.277Z,1034.01
2023-02-12T02:18:35.341Z,1034.04
2023-02-12T02:19:35.362Z,1034.00
2023-02-12T02:20:35.389Z,1033.99
2023-02-12T02:21:35.418Z,1033.97
2023-02-12T02:22:35.745Z,1033.98
2023-02-12T02:23:35.479Z,1033.98
2023-02-12T02:24:35.506Z,1033.98
2023-02-12T02:25:35.531Z,1034.02
2023-02-12T02:26:35.576Z,1033.98
2023-02-12T02:27:35.586Z,1033.99
2023-02-12T02:28:35.630Z,1033.99
2023-02-12T02:29:35.940Z,1033.99
2023-02-12T02:30:35.773Z,1033.99
2023-02-12T02:31:35.840Z,1033.97
2023-02-12T02:32:35.729Z,1033.94
2023-02-12T02:33:35.753Z,1033.95
2023-02-12T02:34:35.777Z,1033.96
2023-02-12T02:35:35.809Z,1033.96
2023-02-12T02:36:36.137Z,1033.95
2023-02-12T02:37:35.866Z,1033.99
2023-02-12T02:38:35.909Z,1033.94
2023-02-12T02:39:35.925Z,1033.97
2023-02-12T02:40:35.961Z,1033.92
2023-02-12T02:42:36.009Z,1033.88
2023-02-12T02:43:36.345Z,1033.88
2023-02-12T02:44:36.070Z,1033.92
2023-02-12T02:45:36.104Z,1033.87
2023-02-12T02:46:36.174Z,1033.91
2023-02-12T02:47:36.171Z,1033.91
2023-02-12T02:48:36.170Z,1033.93
2023-02-12T02:49:36.205Z,1033.94
2023-02-12T02:50:36.479Z,1033.91
2023-02-12T02:51:36.254Z,1033.91
2023-02-12T02:52:36.290Z,1033.93
2023-02-12T02:53:36.326Z,1033.90
2023-02-12T02:54:36.340Z,1033.92
2023-02-12T02:55:36.373Z,1033.86
2023-02-12T02:56:36.412Z,1033.86
2023-02-12T02:57:36.730Z,1033.89
2023-02-12T02:58:36.463Z,1033.89
2023-02-12T03:00:36.582Z,1033.94
2023-02-12T03:01:36.548Z,1033.95
2023-02-12T03:02:36.604Z,1033.94
2023-02-12T03:05:36.924Z,1033.89
2023-02-12T03:07:36.709Z,1033.86
2023-02-12T03:08:36.742Z,1033.88
2023-02-12T03:10:36.798Z,1033.89
2023-02-12T03:11:36.818Z,1033.87
2023-02-12T03:12:37.104Z,1033.87
2023-02-12T03:13:36.913Z,1033.88
2023-02-12T03:14:36.954Z,1033.87
2023-02-12T03:15:36.932Z,1033.83
2023-02-12T03:16:37.074Z,1033.83
2023-02-12T03:17:36.990Z,1033.80
2023-02-12T03:18:37.030Z,1033.78
2023-02-12T03:19:37.054Z,1033.82
2023-02-12T03:20:37.078Z,1033.83
2023-02-12T03:21:37.122Z,1033.83
2023-02-12T03:22:37.125Z,1033.78
2023-02-12T03:23:37.173Z,1033.79
2023-02-12T03:24:37.193Z,1033.78
2023-02-12T03:25:37.220Z,1033.78
2023-02-12T03:26:37.241Z,1033.80
2023-02-12T03:27:37.296Z,1033.84
2023-02-12T03:28:37.417Z,1033.80
2023-02-12T03:29:37.328Z,1033.84
2023-02-12T03:30:37.380Z,1033.85
2023-02-12T03:32:37.716Z,1033.83
2023-02-12T03:33:37.465Z,1033.84
2023-02-12T03:34:37.471Z,1033.77
2023-02-12T03:35:37.496Z,1033.80
2023-02-12T03:36:37.525Z,1033.76
2023-02-12T03:37:37.579Z,1033.79
2023-02-12T03:39:37.924Z,1033.76
2023-02-12T03:40:37.637Z,1033.80
2023-02-12T03:41:37.665Z,1033.81
2023-02-12T03:42:37.688Z,1033.80
2023-02-12T03:43:37.719Z,1033.79
2023-02-12T03:44:37.750Z,1033.78
2023-02-12T03:45:38.214Z,1033.81
2023-02-12T03:46:37.799Z,1033.75
2023-02-12T03:48:37.860Z,1033.76
2023-02-12T03:49:37.895Z,1033.76
2023-02-12T03:50:38.106Z,1033.76
2023-02-12T03:52:38.298Z,1033.80
2023-02-12T03:53:38.045Z,1033.82
2023-02-12T03:54:38.046Z,1033.81
2023-02-12T03:55:38.181Z,1033.82
2023-02-12T03:56:38.085Z,1033.81
2023-02-12T03:57:38.111Z,1033.77
2023-02-12T03:58:38.487Z,1033.78
2023-02-12T03:59:38.183Z,1033.73
2023-02-12T04:01:38.377Z,1033.76
2023-02-12T04:02:38.249Z,1033.79
2023-02-12T04:03:38.292Z,1033.78
2023-02-12T04:04:38.347Z,1033.78
2023-02-12T04:05:38.735Z,1033.78
2023-02-12T04:06:38.360Z,1033.81
2023-02-12T04:07:38.395Z,1033.84
2023-02-12T04:08:38.422Z,1033.82
2023-02-12T04:09:38.469Z,1033.85
2023-02-12T04:10:38.469Z,1033.86
2023-02-12T04:12:38.526Z,1033.84
2023-02-12T04:13:38.856Z,1033.84
2023-02-12T04:14:38.581Z,1033.83
2023-02-12T04:15:38.609Z,1033.87
2023-02-12T04:16:38.739Z,1033.90
2023-02-12T04:17:38.666Z,1033.92
2023-02-12T04:18:38.696Z,1033.93
2023-02-12T04:19:38.716Z,1033.91
2023-02-12T04:20:39.065Z,1033.95
2023-02-12T04:21:38.780Z,1033.92
2023-02-12T04:22:38.799Z,1033.96
2023-02-12T04:24:38.870Z,1033.98
2023-02-12T04:25:38.910Z,1034.01
2023-02-12T04:26:38.931Z,1034.04
2023-02-12T04:27:39.245Z,1034.02
2023-02-12T04:28:39.048Z,1034.05
2023-02-12T04:29:39.026Z,1034.03
2023-02-12T04:30:39.138Z,1034.05
2023-02-12T04:31:39.244Z,1034.04
2023-02-12T04:34:39.145Z,1034.03
2023-02-12T04:35:39.433Z,1034.08
2023-02-12T04:36:39.203Z,1034.09
2023-02-12T04:37:39.240Z,1034.14
2023-02-12T04:38:39.252Z,1034.13
2023-02-12T04:39:39.280Z,1034.13
2023-02-12T04:40:39.324Z,1034.18
2023-02-12T04:41:39.364Z,1034.19
2023-02-12T04:42:39.625Z,1034.16
2023-02-12T04:43:39.396Z,1034.19
2023-02-12T04:44:39.428Z,1034.16
2023-02-12T04:45:39.470Z,1034.15
2023-02-12T04:46:39.488Z,1034.17
2023-02-12T04:47:39.513Z,1034.16
2023-02-12T04:48:39.545Z,1034.15
2023-02-12T04:49:39.864Z,1034.21
2023-02-12T04:50:39.590Z,1034.17
2023-02-12T04:51:39.647Z,1034.16
2023-02-12T04:52:39.646Z,1034.16
2023-02-12T04:53:39.689Z,1034.18
2023-02-12T04:54:39.712Z,1034.16
2023-02-12T04:55:39.727Z,1034.18
2023-02-12T04:56:40.012Z,1034.21
2023-02-12T04:57:39.819Z,1034.20
2023-02-12T04:59:39.881Z,1034.18
2023-02-12T05:00:39.868Z,1034.16
2023-02-12T05:01:40.037Z,1034.19
2023-02-12T05:02:39.930Z,1034.17
2023-02-12T05:03:40.272Z,1034.19
2023-02-12T05:04:40.006Z,1034.21
2023-02-12T05:05:40.017Z,1034.17
2023-02-12T05:06:40.038Z,1034.20
2023-02-12T05:07:40.068Z,1034.19
2023-02-12T05:08:40.107Z,1034.19
2023-02-12T05:09:40.131Z,1034.21
2023-02-12T05:10:40.400Z,1034.18
2023-02-12T05:11:40.190Z,1034.20
2023-02-12T05:12:40.211Z,1034.16
2023-02-12T05:13:40.260Z,1034.17
2023-02-12T05:14:40.261Z,1034.20
2023-02-12T05:15:40.374Z,1034.15
2023-02-12T05:16:40.345Z,1034.17
2023-02-12T05:17:40.645Z,1034.17
2023-02-12T05:18:40.377Z,1034.16
2023-02-12T05:19:40.414Z,1034.13
2023-02-12T05:20:40.431Z,1034.15
2023-02-12T05:22:40.506Z,1034.13
2023-02-12T05:23:40.511Z,1034.12
2023-02-12T05:24:40.790Z,1034.13
2023-02-12T05:25:40.572Z,1034.16
2023-02-12T05:26:40.596Z,1034.17
2023-02-12T05:27:40.628Z,1034.15
2023-02-12T05:28:40.651Z,1034.12
2023-02-12T05:29:40.706Z,1034.15
2023-02-12T05:30:40.720Z,1034.16
2023-02-12T05:31:41.265Z,1034.12
2023-02-12T05:32:40.770Z,1034.16
2023-02-12T05:33:40.793Z,1034.11
2023-02-12T05:34:40.829Z,1034.11
2023-02-12T05:35:40.944Z,1034.11
2023-02-12T05:36:40.886Z,1034.16
2023-02-12T05:37:40.905Z,1034.15
2023-02-12T05:38:41.250Z,1034.16
2023-02-12T05:39:40.968Z,1034.16
2023-02-12T05:40:40.989Z,1034.17
2023-02-12T05:41:41.026Z,1034.12
2023-02-12T05:42:41.042Z,1034.16
2023-02-12T05:43:41.072Z,1034.18
2023-02-12T05:44:41.113Z,1034.21
2023-02-12T05:45:41.468Z,1034.21
2023-02-12T05:46:41.262Z,1034.23
2023-02-12T05:47:41.189Z,1034.25
2023-02-12T05:48:41.214Z,1034.26
2023-02-12T05:49:41.243Z,1034.22
2023-02-12T05:50:41.262Z,1034.22
2023-02-12T05:51:41.297Z,1034.27
2023-02-12T05:52:41.633Z,1034.28
2023-02-12T05:53:41.370Z,1034.28
2023-02-12T05:54:41.388Z,1034.27
2023-02-12T05:55:41.429Z,1034.31
2023-02-12T05:56:41.430Z,1034.30
2023-02-12T05:58:41.486Z,1034.30
2023-02-12T05:59:41.813Z,1034.29
2023-02-12T06:00:41.546Z,1034.27
2023-02-12T06:01:41.596Z,1034.32
2023-02-12T06:02:41.650Z,1034.28
2023-02-12T06:03:41.795Z,1034.29
2023-02-12T06:05:41.756Z,1034.35
2023-02-12T06:06:42.237Z,1034.36
2023-02-12T06:07:41.745Z,1034.38
2023-02-12T06:08:41.771Z,1034.38
2023-02-12T06:09:41.814Z,1034.34
2023-02-12T06:10:41.874Z,1034.35
2023-02-12T06:11:41.883Z,1034.32
2023-02-12T06:12:41.885Z,1034.31
2023-02-12T06:13:42.160Z,1034.32
2023-02-12T06:14:41.937Z,1034.33
2023-02-12T06:15:42.009Z,1034.28
2023-02-12T06:16:42.037Z,1034.33
2023-02-12T06:17:42.044Z,1034.32
2023-02-12T06:18:42.050Z,1034.29
2023-02-12T06:19:42.095Z,1034.27
2023-02-12T06:20:42.420Z,1034.21
2023-02-12T06:21:42.273Z,1034.21
2023-02-12T06:22:42.151Z,1034.20
2023-02-12T06:23:42.202Z,1034.24
2023-02-12T06:24:42.217Z,1034.20
2023-02-12T06:25:42.236Z,1034.21
2023-02-12T06:26:42.591Z,1034.24
2023-02-12T06:27:42.301Z,1034.19
2023-02-12T06:28:42.350Z,1034.25
2023-02-12T06:29:42.351Z,1034.27
2023-02-12T06:30:42.403Z,1034.26
2023-02-12T06:31:42.560Z,1034.27
2023-02-12T06:32:42.750Z,1034.29
2023-02-12T06:33:42.492Z,1034.29
2023-02-12T06:34:42.506Z,1034.31
2023-02-12T06:35:42.745Z,1034.31
2023-02-12T06:36:42.576Z,1034.30
2023-02-12T06:37:42.578Z,1034.29
2023-02-12T06:38:42.865Z,1034.30
2023-02-12T06:39:42.641Z,1034.35
2023-02-12T06:40:42.677Z,1034.31
2023-02-12T06:41:42.687Z,1034.34
2023-02-12T06:42:42.718Z,1034.31
2023-02-12T06:43:42.768Z,1034.37
2023-02-12T06:44:42.781Z,1034.34
2023-02-12T06:45:43.053Z,1034.37
2023-02-12T06:46:42.929Z,1034.40
2023-02-12T06:47:42.862Z,1034.42
2023-02-12T06:48:42.887Z,1034.45
2023-02-12T06:49:42.957Z,1034.49
2023-02-12T06:50:42.941Z,1034.46
2023-02-12T06:51:42.989Z,1034.49
2023-02-12T06:52:43.314Z,1034.48
2023-02-12T06:53:43.043Z,1034.45
2023-02-12T06:54:43.085Z,1034.50
2023-02-12T06:55:43.076Z,1034.52
2023-02-12T06:56:43.118Z,1034.55
2023-02-12T06:57:43.137Z,1034.61
2023-02-12T06:58:43.171Z,1034.60
2023-02-12T06:59:43.449Z,1034.62
2023-02-12T07:00:43.268Z,1034.65
2023-02-12T07:01:43.254Z,1034.66
2023-02-12T07:02:43.275Z,1034.65
2023-02-12T07:03:43.352Z,1034.70
2023-02-12T07:04:43.362Z,1034.68
2023-02-12T07:05:43.394Z,1034.66
2023-02-12T07:06:43.641Z,1034.71
2023-02-12T07:07:43.413Z,1034.69
2023-02-12T07:08:43.444Z,1034.66
2023-02-12T07:09:43.472Z,1034.66
2023-02-12T07:10:43.507Z,1034.71
2023-02-12T07:11:43.553Z,1034.69
2023-02-12T07:12:43.559Z,1034.73
2023-02-12T07:13:43.840Z,1034.71
2023-02-12T07:14:43.617Z,1034.68
2023-02-12T07:15:43.645Z,1034.67
2023-02-12T07:16:43.762Z,1034.70
2023-02-12T07:17:43.702Z,1034.67
2023-02-12T07:18:43.725Z,1034.72
2023-02-12T07:19:43.758Z,1034.71
2023-02-12T07:20:43.779Z,1034.74
2023-02-12T07:21:43.958Z,1034.75
2023-02-12T07:22:43.833Z,1034.79
2023-02-12T07:23:43.866Z,1034.79
2023-02-12T07:24:43.900Z,1034.78
2023-02-12T07:25:43.928Z,1034.77
2023-02-12T07:26:43.953Z,1034.79
2023-02-12T07:27:43.973Z,1034.78
2023-02-12T07:28:44.010Z,1034.81
2023-02-12T07:30:44.072Z,1034.84
2023-02-12T07:31:44.155Z,1034.81
2023-02-12T07:32:44.367Z,1034.87
2023-02-12T07:33:44.141Z,1034.87
2023-02-12T07:34:44.165Z,1034.84
2023-02-12T07:35:44.199Z,1034.83
2023-02-12T07:36:44.229Z,1034.85
2023-02-12T07:37:44.273Z,1034.84
2023-02-12T07:38:44.300Z,1034.87
2023-02-12T07:39:44.311Z,1034.85
2023-02-12T07:40:44.371Z,1034.87
2023-02-12T07:41:44.380Z,1034.87
2023-02-12T07:42:44.404Z,1034.89
2023-02-12T07:43:44.430Z,1034.89
2023-02-12T07:44:44.771Z,1034.89
2023-02-12T07:45:44.666Z,1034.94
2023-02-12T07:46:47.725Z,1034.90
2023-02-12T07:47:44.529Z,1034.93
2023-02-12T07:48:44.561Z,1034.94
2023-02-12T07:49:44.593Z,1034.94
2023-02-12T07:50:44.917Z,1034.98
2023-02-12T07:51:44.642Z,1034.97
2023-02-12T07:52:44.682Z,1035.00
2023-02-12T07:53:44.771Z,1035.03
2023-02-12T07:54:44.736Z,1035.00
2023-02-12T07:55:44.758Z,1035.02
2023-02-12T07:56:44.783Z,1035.01
2023-02-12T07:57:45.062Z,1034.98
2023-02-12T07:58:44.876Z,1035.00
2023-02-12T07:59:44.871Z,1034.98
2023-02-12T08:00:44.897Z,1034.98
2023-02-12T08:01:44.923Z,1034.98
2023-02-12T08:02:45.052Z,1034.98
2023-02-12T08:03:45.008Z,1035.06
2023-02-12T08:04:45.335Z,1035.08
2023-02-12T08:05:45.045Z,1035.07
2023-02-12T08:06:45.085Z,1035.10
2023-02-12T08:07:45.097Z,1035.08
2023-02-12T08:08:45.122Z,1035.12
2023-02-12T08:09:45.183Z,1035.10
2023-02-12T08:10:45.176Z,1035.11
2023-02-12T08:11:45.454Z,1035.09
2023-02-12T08:12:45.236Z,1035.10
2023-02-12T08:13:45.253Z,1035.09
2023-02-12T08:14:45.286Z,1035.13
2023-02-12T08:15:45.324Z,1035.14
2023-02-12T08:16:45.413Z,1035.12
2023-02-12T08:17:45.367Z,1035.15
2023-02-12T08:18:45.405Z,1035.15
2023-02-12T08:19:45.441Z,1035.14
2023-02-12T08:20:45.503Z,1035.13
2023-02-12T08:21:45.479Z,1035.15
2023-02-12T08:22:45.512Z,1035.17
2023-02-12T08:23:45.538Z,1035.20
2023-02-12T08:24:45.893Z,1035.21
2023-02-12T08:25:45.714Z,1035.22
2023-02-12T08:26:45.614Z,1035.19
2023-02-12T08:27:45.649Z,1035.23
2023-02-12T08:28:45.676Z,1035.23
2023-02-12T08:29:45.704Z,1035.20
2023-02-12T08:30:45.765Z,1035.22
2023-02-12T08:31:46.144Z,1035.17
2023-02-12T08:32:45.788Z,1035.18
2023-02-12T08:33:45.830Z,1035.18
2023-02-12T08:35:45.988Z,1035.21
2023-02-12T08:36:45.894Z,1035.20
2023-02-12T08:37:45.928Z,1035.23
2023-02-12T08:38:46.271Z,1035.22
2023-02-12T08:39:45.987Z,1035.23
2023-02-12T08:40:46.080Z,1035.24
2023-02-12T08:41:46.068Z,1035.24
2023-02-12T08:42:46.072Z,1035.28
2023-02-12T08:43:46.194Z,1035.26
2023-02-12T08:44:46.378Z,1035.26
2023-02-12T08:45:46.213Z,1035.28
2023-02-12T08:46:46.427Z,1035.29
2023-02-12T08:47:46.204Z,1035.25
2023-02-12T08:48:46.255Z,1035.27
2023-02-12T08:49:46.272Z,1035.26
2023-02-12T08:50:46.544Z,1035.28
2023-02-12T08:51:46.339Z,1035.30
2023-02-12T08:52:46.349Z,1035.30
2023-02-12T08:53:46.383Z,1035.26
2023-02-12T08:54:46.405Z,1035.26
2023-02-12T08:55:46.432Z,1035.29
2023-02-12T08:56:46.903Z,1035.26
2023-02-12T08:57:46.504Z,1035.28
2023-02-12T08:58:46.540Z,1035.24
2023-02-12T08:59:46.542Z,1035.25
2023-02-12T09:00:46.567Z,1035.25
2023-02-12T09:01:46.608Z,1035.24
2023-02-12T09:03:46.666Z,1035.28
2023-02-12T09:04:46.930Z,1035.23
2023-02-12T09:05:46.714Z,1035.26
2023-02-12T09:07:46.868Z,1035.22
2023-02-12T09:08:46.798Z,1035.25
2023-02-12T09:09:46.820Z,1035.27
2023-02-12T09:10:47.148Z,1035.30
2023-02-12T09:11:46.891Z,1035.27
2023-02-12T09:12:46.910Z,1035.28
2023-02-12T09:13:46.963Z,1035.25
2023-02-12T09:14:46.974Z,1035.29
2023-02-12T09:15:46.985Z,1035.31
2023-02-12T09:16:47.180Z,1035.29
2023-02-12T09:17:47.346Z,1035.32
2023-02-12T09:18:47.098Z,1035.29
2023-02-12T09:19:47.110Z,1035.30
2023-02-12T09:20:47.150Z,1035.30
2023-02-12T09:21:47.156Z,1035.35
2023-02-12T09:22:47.218Z,1035.34
2023-02-12T09:23:47.235Z,1035.36
2023-02-12T09:24:47.572Z,1035.37
2023-02-12T09:25:47.286Z,1035.36
2023-02-12T09:26:47.354Z,1035.33
2023-02-12T09:27:47.336Z,1035.35
2023-02-12T09:28:47.389Z,1035.33
2023-02-12T09:29:47.408Z,1035.31
2023-02-12T09:30:47.495Z,1035.34
2023-02-12T09:31:47.644Z,1035.35
2023-02-12T09:32:47.492Z,1035.38
2023-02-12T09:33:51.187Z,1035.38
2023-02-12T09:34:47.640Z,1035.41
2023-02-12T09:35:47.555Z,1035.40
2023-02-12T09:36:47.580Z,1035.34
2023-02-12T09:37:47.929Z,1035.35
2023-02-12T09:38:47.633Z,1035.33
2023-02-12T09:39:50.147Z,1035.34
2023-02-12T09:40:47.723Z,1035.34
2023-02-12T09:41:47.734Z,1035.35
2023-02-12T09:42:47.755Z,1035.36
2023-02-12T09:43:47.780Z,1035.37
2023-02-12T09:44:48.121Z,1035.35
2023-02-12T09:45:50.301Z,1035.41
2023-02-12T09:46:48.023Z,1035.39
2023-02-12T09:47:47.902Z,1035.42
2023-02-12T09:48:47.923Z,1035.42
2023-02-12T09:49:47.996Z,1035.44
2023-02-12T09:50:47.976Z,1035.43
2023-02-12T09:51:51.203Z,1035.42
2023-02-12T09:52:48.034Z,1035.43
2023-02-12T09:53:48.061Z,1035.46
2023-02-12T09:54:48.095Z,1035.47
2023-02-12T09:56:48.152Z,1035.48
2023-02-12T09:57:48.176Z,1035.49
2023-02-12T09:58:48.514Z,1035.48
2023-02-12T09:59:48.325Z,1035.48
2023-02-12T10:00:48.289Z,1035.47
2023-02-12T10:01:48.372Z,1035.50
2023-02-12T10:02:48.723Z,1035.48
2023-02-12T10:03:48.358Z,1035.50
2023-02-12T10:05:00.250Z,1035.49
2023-02-12T10:05:48.514Z,1035.52
2023-02-12T10:06:48.460Z,1035.49
2023-02-12T10:07:48.467Z,1035.48
2023-02-12T10:08:48.503Z,1035.51
2023-02-12T10:09:48.566Z,1035.54
2023-02-12T10:10:48.556Z,1035.52
2023-02-12T10:11:48.926Z,1035.51
2023-02-12T10:12:48.720Z,1035.52
2023-02-12T10:13:48.644Z,1035.54
2023-02-12T10:14:48.708Z,1035.56
2023-02-12T10:15:48.729Z,1035.53
2023-02-12T10:16:48.729Z,1035.54
2023-02-12T10:17:49.080Z,1035.52
2023-02-12T10:18:48.816Z,1035.55
2023-02-12T10:19:48.907Z,1035.56
2023-02-12T10:20:48.846Z,1035.58
2023-02-12T10:21:48.891Z,1035.55
2023-02-12T10:22:56.808Z,1035.55
2023-02-12T10:23:48.937Z,1035.55
2023-02-12T10:24:48.966Z,1035.54
2023-02-12T10:25:49.022Z,1035.55
2023-02-12T10:26:49.017Z,1035.58
2023-02-12T10:27:49.071Z,1035.57
2023-02-12T10:28:49.088Z,1035.54
2023-02-12T10:29:49.363Z,1035.58
2023-02-12T10:30:49.217Z,1035.56
2023-02-12T10:31:49.330Z,1035.57
2023-02-12T10:32:49.242Z,1035.56
2023-02-12T10:33:49.234Z,1035.54
2023-02-12T10:34:49.343Z,1035.57
2023-02-12T10:35:49.261Z,1035.57
2023-02-12T10:36:49.592Z,1035.55
2023-02-12T10:37:49.325Z,1035.55
2023-02-12T10:38:49.412Z,1035.58
2023-02-12T10:39:49.385Z,1035.55
2023-02-12T10:40:49.539Z,1035.56
2023-02-12T10:41:49.478Z,1035.53
2023-02-12T10:42:49.509Z,1035.53
2023-02-12T10:43:49.802Z,1035.51
2023-02-12T10:44:49.538Z,1035.55
2023-02-12T10:45:49.546Z,1035.48
2023-02-12T10:46:49.607Z,1035.48
2023-02-12T10:47:49.653Z,1035.48
2023-02-12T10:48:49.802Z,1035.45
2023-02-12T10:49:49.695Z,1035.45
2023-02-12T10:50:50.019Z,1035.44
2023-02-12T10:51:49.759Z,1035.43
2023-02-12T10:52:49.906Z,1035.45
2023-02-12T10:53:49.800Z,1035.41
2023-02-12T10:54:49.823Z,1035.44
2023-02-12T10:55:50.423Z,1035.44
2023-02-12T10:56:49.908Z,1035.45
2023-02-12T10:57:49.944Z,1035.46
2023-02-12T10:58:49.924Z,1035.44
2023-02-12T10:59:50.003Z,1035.44
2023-02-12T11:00:50.062Z,1035.42
2023-02-12T11:01:50.045Z,1035.44
2023-02-12T11:02:50.055Z,1035.39
2023-02-12T11:03:50.372Z,1035.43
2023-02-12T11:04:50.142Z,1035.44
2023-02-12T11:05:50.143Z,1035.42
2023-02-12T11:06:50.164Z,1035.46
2023-02-12T11:07:50.226Z,1035.45
2023-02-12T11:08:50.218Z,1035.48
2023-02-12T11:09:50.540Z,1035.48
2023-02-12T11:10:50.266Z,1035.45
2023-02-12T11:11:50.390Z,1035.44
2023-02-12T11:12:50.335Z,1035.45
2023-02-12T11:13:50.416Z,1035.43
2023-02-12T11:14:50.386Z,1035.41
2023-02-12T11:15:50.716Z,1035.44
2023-02-12T11:16:50.439Z,1035.42
2023-02-12T11:17:50.473Z,1035.40
2023-02-12T11:18:50.511Z,1035.40
2023-02-12T11:19:50.635Z,1035.34
2023-02-12T11:20:50.591Z,1035.32
2023-02-12T11:21:50.906Z,1035.30
2023-02-12T11:22:50.625Z,1035.29
2023-02-12T11:23:50.705Z,1035.25
2023-02-12T11:24:50.670Z,1035.30
2023-02-12T11:25:50.754Z,1035.26
2023-02-12T11:26:50.868Z,1035.27
2023-02-12T11:27:50.762Z,1035.30
2023-02-12T11:28:51.159Z,1035.30
2023-02-12T11:29:50.814Z,1035.29
2023-02-12T11:30:50.883Z,1035.24
2023-02-12T11:31:50.914Z,1035.20
2023-02-12T11:32:50.913Z,1035.21
2023-02-12T11:33:50.939Z,1035.22
2023-02-12T11:34:50.964Z,1035.23
2023-02-12T11:35:51.265Z,1035.21
2023-02-12T11:36:51.105Z,1035.14
2023-02-12T11:37:51.073Z,1035.14
2023-02-12T11:38:51.087Z,1035.08
2023-02-12T11:39:51.119Z,1035.13
2023-02-12T11:40:51.166Z,1035.10
2023-02-12T11:41:51.188Z,1035.08
2023-02-12T11:42:51.462Z,1035.07
2023-02-12T11:43:52.117Z,1035.04
2023-02-12T11:44:51.262Z,1035.04
2023-02-12T11:45:51.291Z,1035.00
2023-02-12T11:46:51.423Z,1035.03
2023-02-12T11:47:51.420Z,1035.01
2023-02-12T11:48:51.547Z,1035.00
2023-02-12T11:49:51.710Z,1034.98
2023-02-12T11:50:51.435Z,1035.00
2023-02-12T11:51:51.470Z,1035.02
2023-02-12T11:52:51.514Z,1034.99
2023-02-12T11:53:51.551Z,1035.01
2023-02-12T11:54:51.552Z,1034.98
2023-02-12T11:55:51.583Z,1034.95
2023-02-12T11:56:51.915Z,1034.97
2023-02-12T11:57:51.681Z,1034.96
2023-02-12T11:58:51.677Z,1034.96
2023-02-12T11:59:51.703Z,1034.93
2023-02-12T12:00:51.733Z,1034.93
2023-02-12T12:01:51.838Z,1034.93
2023-02-12T12:02:51.883Z,1034.95
2023-02-12T12:03:52.125Z,1034.93
2023-02-12T12:04:51.842Z,1034.90
2023-02-12T12:05:51.871Z,1034.92
2023-02-12T12:06:51.905Z,1034.94
2023-02-12T12:07:54.920Z,1034.92
2023-02-12T12:08:52.002Z,1034.91
2023-02-12T12:10:52.072Z,1034.89
2023-02-12T12:11:52.493Z,1034.86
2023-02-12T12:12:52.085Z,1034.87
2023-02-12T12:14:52.136Z,1034.84
2023-02-12T12:15:52.175Z,1034.85
2023-02-12T12:16:52.209Z,1034.81
2023-02-12T12:17:53.655Z,1034.84
2023-02-12T12:18:52.570Z,1034.79
2023-02-12T12:19:52.283Z,1034.79
2023-02-12T12:20:53.665Z,1034.77
2023-02-12T12:21:53.752Z,1034.75
2023-02-12T12:22:53.931Z,1034.74
2023-02-12T12:23:53.961Z,1034.75
2023-02-12T12:24:53.475Z,1034.76
2023-02-12T12:25:53.340Z,1034.70
2023-02-12T12:26:52.524Z,1034.72
2023-02-12T12:27:52.528Z,1034.69
2023-02-12T12:28:52.553Z,1034.68
2023-02-12T12:29:52.587Z,1034.65
2023-02-12T12:30:52.736Z,1034.70
2023-02-12T12:31:52.694Z,1034.68
2023-02-12T12:32:52.970Z,1034.68
2023-02-12T12:33:52.819Z,1034.65
2023-02-12T12:34:52.727Z,1034.64
2023-02-12T12:35:52.762Z,1034.64
2023-02-12T12:36:52.795Z,1034.67
2023-02-12T12:37:52.820Z,1034.65
2023-02-12T12:38:52.849Z,1034.64
2023-02-12T12:39:53.134Z,1034.57
2023-02-12T12:40:52.912Z,1034.49
2023-02-12T12:41:52.937Z,1034.53
2023-02-12T12:42:52.990Z,1034.48
2023-02-12T12:43:53.003Z,1034.55
2023-02-12T12:44:53.047Z,1034.48
2023-02-12T12:47:53.125Z,1034.42
2023-02-12T12:48:53.196Z,1034.41
2023-02-12T12:49:53.175Z,1034.42
2023-02-12T12:51:53.308Z,1034.39
2023-02-12T12:52:53.267Z,1034.37